createdAt,value
2023-04-03T00:01:05.651Z,78.90
2023-04-03T00:03:33.409Z,78.90
2023-04-03T00:06:00.702Z,78.80
2023-04-03T00:08:27.678Z,78.70
2023-04-03T00:10:54.745Z,78.60
2023-04-03T00:13:21.734Z,78.60
2023-04-03T00:15:48.805Z,78.50
2023-04-03T00:18:16.132Z,78.40
2023-04-03T00:20:43.139Z,78.40
2023-04-03T00:23:10.288Z,78.30
2023-04-03T00:25:37.982Z,78.30
2023-04-03T00:28:05.633Z,78.20
2023-04-03T00:30:33.389Z,78.20
2023-04-03T00:33:01.798Z,78.20
2023-04-03T00:35:29.400Z,78.20
2023-04-03T00:37:57.474Z,78.20
2023-04-03T00:40:26.532Z,78.20
2023-04-03T00:42:58.543Z,78.10
2023-04-03T00:45:28.814Z,78.10
2023-04-03T00:47:56.771Z,78.10
2023-04-03T00:50:24.423Z,78.10
2023-04-03T00:52:52.403Z,78.00
2023-04-03T00:55:21.485Z,78.00
2023-04-03T00:57:50.013Z,78.00
2023-04-03T01:00:19.846Z,78.00
2023-04-03T01:02:47.048Z,78.00
2023-04-03T01:05:17.852Z,78.00
2023-04-03T01:07:46.152Z,78.00
2023-04-03T01:10:16.488Z,78.00
2023-04-03T01:12:46.405Z,78.10
2023-04-03T01:15:24.205Z,78.00
2023-04-03T01:17:59.925Z,78.00
2023-04-03T01:20:33.192Z,78.00
2023-04-03T01:23:12.155Z,78.00
2023-04-03T01:25:42.153Z,78.00
2023-04-03T01:28:13.148Z,78.00
2023-04-03T01:30:50.548Z,78.00
2023-04-03T01:33:17.843Z,78.00
2023-04-03T01:35:46.746Z,78.00
2023-04-03T01:38:13.829Z,78.00
2023-04-03T01:40:41.131Z,78.00
2023-04-03T01:43:08.239Z,78.00
2023-04-03T01:45:35.300Z,78.10
2023-04-03T01:48:02.749Z,78.10
2023-04-03T01:50:29.801Z,78.10
2023-04-03T01:52:57.048Z,78.00
2023-04-03T01:55:24.146Z,78.00
2023-04-03T01:57:51.245Z,78.00
2023-04-03T02:00:18.425Z,78.00
2023-04-03T02:02:45.596Z,78.10
2023-04-03T02:05:12.566Z,78.10
2023-04-03T02:07:39.746Z,78.10
2023-04-03T02:10:07.306Z,78.10
2023-04-03T02:12:34.464Z,78.10
2023-04-03T02:15:01.953Z,78.10
2023-04-03T02:17:29.232Z,78.10
2023-04-03T02:19:56.313Z,78.10
2023-04-03T02:22:24.283Z,78.10
2023-04-03T02:24:52.850Z,78.00
2023-04-03T02:27:21.116Z,78.10
2023-04-03T02:29:49.209Z,78.10
2023-04-03T02:32:16.640Z,78.10
2023-04-03T02:34:44.438Z,78.10
2023-04-03T02:37:13.746Z,78.10
2023-04-03T02:39:40.964Z,78.10
2023-04-03T02:42:08.578Z,78.20
2023-04-03T02:44:36.648Z,78.20
2023-04-03T02:47:04.069Z,78.20
2023-04-03T02:49:31.078Z,78.20
2023-04-03T02:51:58.267Z,78.20
2023-04-03T02:54:28.862Z,78.30
2023-04-03T02:56:59.088Z,78.30
2023-04-03T02:59:26.429Z,78.40
2023-04-03T03:01:54.072Z,78.40
2023-04-03T03:04:21.237Z,78.40
2023-04-03T03:06:48.264Z,78.50
2023-04-03T03:09:15.780Z,78.50
2023-04-03T03:11:43.611Z,78.50
2023-04-03T03:14:10.704Z,78.50
2023-04-03T03:16:37.860Z,78.50
2023-04-03T03:19:04.825Z,78.60
2023-04-03T03:21:31.961Z,78.70
2023-04-03T03:23:59.135Z,78.70
2023-04-03T03:26:27.409Z,78.80
2023-04-03T03:28:55.793Z,78.90
2023-04-03T03:31:23.018Z,79.00
2023-04-03T03:33:50.068Z,79.10
2023-04-03T03:36:17.214Z,79.10
2023-04-03T03:38:44.325Z,79.10
2023-04-03T03:41:11.443Z,79.00
2023-04-03T03:43:39.588Z,79.00
2023-04-03T03:46:08.126Z,78.90
2023-04-03T03:48:35.273Z,78.90
2023-04-03T03:51:02.435Z,78.90
2023-04-03T03:53:33.521Z,78.90
2023-04-03T03:56:05.785Z,79.00
2023-04-03T03:58:34.176Z,79.00
2023-04-03T04:01:07.226Z,79.10
2023-04-03T04:03:39.462Z,79.10
2023-04-03T04:06:08.348Z,79.10
2023-04-03T04:08:35.380Z,79.10
2023-04-03T04:11:02.733Z,79.10
2023-04-03T04:13:29.861Z,79.10
2023-04-03T04:15:56.892Z,79.10
2023-04-03T04:18:24.971Z,79.10
2023-04-03T04:20:52.741Z,79.10
2023-04-03T04:23:20.237Z,79.10
2023-04-03T04:25:49.991Z,79.20
2023-04-03T04:28:17.801Z,79.20
2023-04-03T04:30:46.076Z,79.30
2023-04-03T04:33:15.203Z,79.30
2023-04-03T04:35:44.701Z,79.40
2023-04-03T04:38:12.531Z,79.40
2023-04-03T04:40:39.613Z,79.50
2023-04-03T04:43:07.449Z,79.60
2023-04-03T04:45:35.913Z,79.70
2023-04-03T04:48:03.671Z,79.80
2023-04-03T04:50:31.332Z,79.80
2023-04-03T04:52:58.415Z,79.90
2023-04-03T04:55:25.734Z,80.00
2023-04-03T04:57:52.865Z,80.10
2023-04-03T05:00:21.525Z,80.10
2023-04-03T05:02:49.090Z,80.10
2023-04-03T05:05:16.565Z,80.20
2023-04-03T05:07:43.701Z,80.20
2023-04-03T05:10:11.464Z,80.10
2023-04-03T05:12:39.239Z,80.10
2023-04-03T05:15:06.971Z,80.10
2023-04-03T05:17:34.389Z,80.00
2023-04-03T05:20:03.998Z,80.00
2023-04-03T05:22:31.710Z,79.90
2023-04-03T05:25:05.571Z,79.90
2023-04-03T05:27:33.115Z,79.80
2023-04-03T05:30:01.057Z,79.80
2023-04-03T05:32:28.732Z,79.80
2023-04-03T05:35:22.243Z,79.80
2023-04-03T05:37:52.743Z,79.80
2023-04-03T05:40:20.257Z,79.70
2023-04-03T05:42:51.180Z,79.70
2023-04-03T05:45:19.728Z,79.70
2023-04-03T05:47:47.683Z,79.70
2023-04-03T05:50:15.417Z,79.70
2023-04-03T05:52:46.664Z,79.70
2023-04-03T05:55:14.996Z,79.70
2023-04-03T05:57:42.250Z,79.70
2023-04-03T06:00:13.681Z,79.70
2023-04-03T06:02:49.473Z,79.70
2023-04-03T06:05:21.178Z,79.80
2023-04-03T06:07:50.595Z,79.80
2023-04-03T06:10:18.496Z,79.80
2023-04-03T06:12:45.835Z,79.90
2023-04-03T06:15:13.172Z,79.90
2023-04-03T06:17:41.398Z,79.90
2023-04-03T06:20:10.559Z,80.00
2023-04-03T06:22:37.959Z,80.10
2023-04-03T06:25:06.039Z,80.10
2023-04-03T06:27:33.254Z,80.10
2023-04-03T06:30:00.243Z,80.10
2023-04-03T06:32:27.618Z,80.20
2023-04-03T06:34:54.718Z,80.20
2023-04-03T06:37:26.945Z,80.30
2023-04-03T06:39:53.899Z,80.30
2023-04-03T06:42:21.477Z,80.40
2023-04-03T06:44:55.849Z,80.40
2023-04-03T06:47:22.890Z,80.50
2023-04-03T06:49:49.879Z,80.50
2023-04-03T06:52:16.934Z,80.50
2023-04-03T06:54:43.997Z,80.50
2023-04-03T06:57:11.008Z,80.40
2023-04-03T06:59:38.102Z,80.30
2023-04-03T07:02:05.582Z,80.20
2023-04-03T07:04:32.759Z,80.00
2023-04-03T07:06:59.787Z,79.90
2023-04-03T07:09:27.174Z,79.90
2023-04-03T07:11:54.449Z,80.00
2023-04-03T07:14:22.370Z,80.00
2023-04-03T07:16:49.459Z,79.90
2023-04-03T07:19:16.641Z,79.70
2023-04-03T07:21:44.430Z,79.40
2023-04-03T07:24:15.084Z,79.40
2023-04-03T07:26:44.025Z,79.40
2023-04-03T07:29:10.999Z,79.50
2023-04-03T07:31:39.758Z,79.10
2023-04-03T07:34:06.807Z,79.20
2023-04-03T07:36:34.497Z,79.00
2023-04-03T07:39:02.150Z,78.80
2023-04-03T07:41:29.689Z,78.80
2023-04-03T07:43:57.679Z,79.00
2023-04-03T07:46:25.008Z,78.70
2023-04-03T07:48:52.094Z,78.70
2023-04-03T07:51:19.133Z,78.00
2023-04-03T07:53:46.153Z,77.90
2023-04-03T07:56:16.197Z,78.00
2023-04-03T07:58:43.342Z,78.10
2023-04-03T08:01:10.531Z,77.90
2023-04-03T08:03:38.966Z,78.00
2023-04-03T08:06:11.920Z,78.10
2023-04-03T08:08:43.076Z,77.00
2023-04-03T08:11:11.981Z,77.00
2023-04-03T08:13:39.746Z,77.20
2023-04-03T08:16:17.662Z,76.30
2023-04-03T08:18:45.354Z,76.50
2023-04-03T08:21:13.223Z,76.10
2023-04-03T08:23:42.620Z,75.50
2023-04-03T08:26:15.053Z,75.50
2023-04-03T08:28:42.452Z,75.10
2023-04-03T08:31:16.783Z,75.40
2023-04-03T08:33:44.322Z,75.90
2023-04-03T08:36:19.352Z,75.80
2023-04-03T08:38:46.537Z,75.10
2023-04-03T08:41:31.566Z,74.90
2023-04-03T08:44:19.948Z,74.80
2023-04-03T08:47:04.336Z,74.80
2023-04-03T08:49:36.809Z,74.50
2023-04-03T08:52:10.414Z,72.80
2023-04-03T08:54:55.691Z,72.90
2023-04-03T08:57:44.139Z,72.10
2023-04-03T09:00:24.187Z,72.60
2023-04-03T09:02:53.652Z,72.80
2023-04-03T09:05:40.114Z,71.80
2023-04-03T09:08:28.240Z,71.40
2023-04-03T09:11:21.784Z,71.50
2023-04-03T09:14:10.425Z,71.40
2023-04-03T09:16:50.762Z,71.30
2023-04-03T09:19:32.599Z,70.70
2023-04-03T09:22:21.386Z,68.80
2023-04-03T09:25:11.472Z,68.00
2023-04-03T09:27:38.549Z,68.20
2023-04-03T09:30:07.948Z,68.10
2023-04-03T09:32:36.389Z,68.70
2023-04-03T09:35:19.116Z,67.50
2023-04-03T09:37:50.041Z,67.50
2023-04-03T09:40:36.593Z,66.50
2023-04-03T09:43:21.090Z,65.50
2023-04-03T09:45:50.972Z,65.40
2023-04-03T09:48:21.142Z,65.40
2023-04-03T09:51:00.411Z,65.10
2023-04-03T09:53:33.156Z,63.60
2023-04-03T09:56:04.387Z,64.30
2023-04-03T09:58:50.327Z,62.80
2023-04-03T10:01:26.613Z,63.40
2023-04-03T10:04:10.918Z,63.90
2023-04-03T10:06:49.721Z,61.60
2023-04-03T10:09:28.359Z,60.20
2023-04-03T10:12:10.340Z,60.00
2023-04-03T10:14:41.569Z,60.40
2023-04-03T10:17:17.575Z,60.40
2023-04-03T10:20:03.299Z,61.00
2023-04-03T10:22:33.651Z,61.40
2023-04-03T10:25:11.736Z,60.10
2023-04-03T10:27:53.905Z,58.60
2023-04-03T10:30:32.829Z,60.20
2023-04-03T10:33:02.882Z,59.90
2023-04-03T10:35:49.560Z,59.40
2023-04-03T10:39:07.598Z,58.60
2023-04-03T10:41:58.085Z,59.00
2023-04-03T10:45:06.856Z,58.70
2023-04-03T10:47:45.531Z,58.90
2023-04-03T10:50:37.080Z,58.00
2023-04-03T10:53:06.977Z,58.50
2023-04-03T10:55:49.837Z,57.80
2023-04-03T10:58:46.359Z,56.90
2023-04-03T11:01:20.091Z,56.20
2023-04-03T11:03:52.898Z,57.00
2023-04-03T11:06:22.444Z,58.00
2023-04-03T11:08:58.887Z,58.80
2023-04-03T11:11:30.921Z,57.60
2023-04-03T11:14:23.498Z,57.80
2023-04-03T11:17:05.513Z,57.30
2023-04-03T11:19:54.264Z,57.70
2023-04-03T11:22:31.391Z,56.80
2023-04-03T11:25:07.583Z,55.40
2023-04-03T11:28:08.017Z,54.20
2023-04-03T11:31:07.985Z,54.80
2023-04-03T11:33:43.299Z,56.00
2023-04-03T11:38:56.261Z,55.40
2023-04-03T11:41:33.354Z,55.70
2023-04-03T11:44:27.937Z,55.40
2023-04-03T11:46:57.858Z,54.50
2023-04-03T11:49:54.334Z,53.90
2023-04-03T11:52:57.868Z,54.10
2023-04-03T11:55:33.620Z,54.10
2023-04-03T11:58:03.598Z,53.90
2023-04-03T12:00:47.450Z,55.00
2023-04-03T12:03:26.790Z,54.90
2023-04-03T12:06:17.896Z,55.50
2023-04-03T12:08:47.864Z,54.50
2023-04-03T12:11:17.728Z,54.20
2023-04-03T12:13:51.131Z,54.40
2023-04-03T12:16:24.621Z,54.50
2023-04-03T12:18:54.519Z,55.30
2023-04-03T12:21:23.446Z,55.80
2023-04-03T12:24:06.358Z,53.90
2023-04-03T12:26:48.839Z,52.20
2023-04-03T12:29:22.032Z,52.70
2023-04-03T12:32:13.926Z,53.90
2023-04-03T12:34:46.899Z,53.80
2023-04-03T12:37:44.457Z,54.00
2023-04-03T12:40:40.483Z,53.60
2023-04-03T12:43:36.541Z,54.10
2023-04-03T12:46:17.517Z,54.30
2023-04-03T12:48:54.772Z,51.40
2023-04-03T12:51:41.319Z,51.50
2023-04-03T12:54:30.368Z,52.60
2023-04-03T12:57:12.001Z,53.90
2023-04-03T12:59:39.339Z,50.80
2023-04-03T13:02:24.951Z,50.30
2023-04-03T13:04:54.330Z,51.20
2023-04-03T13:07:34.479Z,51.90
2023-04-03T13:10:04.067Z,50.70
2023-04-03T13:12:32.386Z,51.60
2023-04-03T13:15:05.283Z,51.40
2023-04-03T13:17:33.172Z,52.10
2023-04-03T13:20:14.113Z,51.80
2023-04-03T13:22:51.764Z,51.00
2023-04-03T13:25:22.438Z,51.40
2023-04-03T13:27:52.215Z,50.30
2023-04-03T13:30:27.766Z,51.30
2023-04-03T13:32:57.727Z,51.70
2023-04-03T13:35:38.441Z,50.60
2023-04-03T13:38:22.999Z,49.70
2023-04-03T13:40:56.989Z,49.40
2023-04-03T13:43:29.598Z,51.20
2023-04-03T13:46:06.251Z,52.00
2023-04-03T13:48:45.714Z,51.90
2023-04-03T13:51:18.325Z,51.60
2023-04-03T13:54:01.403Z,50.20
2023-04-03T13:56:32.127Z,49.40
2023-04-03T13:59:24.579Z,50.40
2023-04-03T14:02:04.010Z,50.50
2023-04-03T14:04:46.991Z,49.10
2023-04-03T14:07:16.006Z,50.30
2023-04-03T14:09:43.667Z,51.10
2023-04-03T14:12:30.170Z,50.70
2023-04-03T14:14:58.693Z,49.90
2023-04-03T14:17:27.602Z,50.40
2023-04-03T14:19:56.571Z,49.10
2023-04-03T14:22:33.000Z,48.90
2023-04-03T14:25:00.491Z,49.80
2023-04-03T14:27:31.010Z,50.10
2023-04-03T14:29:59.578Z,48.40
2023-04-03T14:32:27.491Z,46.80
2023-04-03T14:34:54.740Z,47.30
2023-04-03T14:37:25.572Z,47.00
2023-04-03T14:39:54.372Z,47.90
2023-04-03T14:42:24.732Z,49.20
2023-04-03T14:44:52.747Z,47.90
2023-04-03T14:47:31.264Z,48.70
2023-04-03T14:50:04.460Z,48.40
2023-04-03T14:52:35.293Z,49.20
2023-04-03T14:55:03.906Z,48.30
2023-04-03T14:57:31.636Z,47.80
2023-04-03T14:59:59.886Z,47.30
2023-04-03T15:02:29.817Z,47.50
2023-04-03T15:04:58.017Z,48.40
2023-04-03T15:07:27.989Z,47.40
2023-04-03T15:09:57.272Z,47.60
2023-04-03T15:12:26.064Z,48.10
2023-04-03T15:15:00.296Z,48.20
2023-04-03T15:17:30.191Z,48.10
2023-04-03T15:19:57.189Z,48.00
2023-04-03T15:22:24.203Z,47.70
2023-04-03T15:24:51.164Z,48.20
2023-04-03T15:27:18.430Z,48.70
2023-04-03T15:29:46.222Z,48.80
2023-04-03T15:32:13.856Z,49.20
2023-04-03T15:34:41.473Z,47.70
2023-04-03T15:37:08.484Z,46.80
2023-04-03T15:39:35.458Z,47.10
2023-04-03T15:42:07.312Z,46.50
2023-04-03T15:44:35.947Z,45.40
2023-04-03T15:47:03.572Z,46.30
2023-04-03T15:49:31.847Z,46.50
2023-04-03T15:51:58.803Z,45.80
2023-04-03T15:54:26.455Z,45.80
2023-04-03T15:56:54.351Z,46.00
2023-04-03T15:59:21.598Z,46.10
2023-04-03T16:01:51.210Z,46.20
2023-04-03T16:04:19.481Z,46.60
2023-04-03T16:06:47.816Z,46.40
2023-04-03T16:09:14.904Z,45.60
2023-04-03T16:11:41.832Z,46.10
2023-04-03T16:14:09.105Z,46.50
2023-04-03T16:16:36.780Z,47.40
2023-04-03T16:19:04.616Z,45.80
2023-04-03T16:21:32.723Z,46.10
2023-04-03T16:24:00.765Z,46.30
2023-04-03T16:26:27.861Z,45.40
2023-04-03T16:28:55.581Z,44.90
2023-04-03T16:31:25.046Z,45.40
2023-04-03T16:33:52.262Z,45.70
2023-04-03T16:36:19.698Z,46.70
2023-04-03T16:38:46.745Z,47.60
2023-04-03T16:41:13.709Z,47.90
2023-04-03T16:46:12.980Z,47.10
2023-04-03T16:48:39.994Z,46.80
2023-04-03T16:51:07.039Z,47.10
2023-04-03T16:53:33.980Z,47.20
2023-04-03T16:56:00.990Z,47.30
2023-04-03T16:58:28.044Z,48.00
2023-04-03T17:00:56.060Z,48.50
2023-04-03T17:03:26.650Z,48.60
2023-04-03T17:05:53.901Z,48.20
2023-04-03T17:08:20.982Z,49.20
2023-04-03T17:10:50.181Z,48.30
2023-04-03T17:13:18.055Z,48.30
2023-04-03T17:15:45.019Z,48.90
2023-04-03T17:18:12.045Z,49.40
2023-04-03T17:20:39.324Z,50.00
2023-04-03T17:23:07.115Z,49.80
2023-04-03T17:25:34.079Z,48.20
2023-04-03T17:28:01.106Z,48.00
2023-04-03T17:30:28.266Z,48.30
2023-04-03T17:32:55.469Z,47.50
2023-04-03T17:35:22.659Z,47.40
2023-04-03T17:37:53.686Z,46.90
2023-04-03T17:40:20.813Z,47.30
2023-04-03T17:42:47.832Z,47.10
2023-04-03T17:45:14.834Z,47.50
2023-04-03T17:47:41.890Z,47.70
2023-04-03T17:50:09.174Z,47.70
2023-04-03T17:52:36.219Z,48.00
2023-04-03T17:55:03.782Z,48.10
2023-04-03T17:57:31.702Z,47.60
2023-04-03T17:59:58.765Z,47.50
2023-04-03T18:02:25.829Z,47.60
2023-04-03T18:04:53.903Z,48.10
2023-04-03T18:07:21.065Z,48.30
2023-04-03T18:09:49.603Z,48.20
2023-04-03T18:12:16.621Z,48.40
2023-04-03T18:14:45.127Z,48.20
2023-04-03T18:17:12.323Z,48.70
2023-04-03T18:19:39.516Z,48.90
2023-04-03T18:22:13.813Z,48.90
2023-04-03T18:24:43.509Z,49.00
2023-04-03T18:27:14.193Z,48.90
2023-04-03T18:29:43.951Z,48.80
2023-04-03T18:32:14.756Z,49.20
2023-04-03T18:34:42.019Z,49.40
2023-04-03T18:37:09.317Z,49.40
2023-04-03T18:39:36.626Z,49.60
2023-04-03T18:42:08.404Z,49.80
2023-04-03T18:44:36.413Z,50.20
2023-04-03T18:47:03.647Z,50.40
2023-04-03T18:49:32.741Z,50.40
2023-04-03T18:52:00.017Z,50.80
2023-04-03T18:54:27.144Z,51.00
2023-04-03T18:56:54.118Z,51.10
2023-04-03T18:59:21.916Z,51.20
2023-04-03T19:01:49.254Z,51.20
2023-04-03T19:04:16.649Z,51.30
2023-04-03T19:06:43.954Z,51.30
2023-04-03T19:09:11.414Z,51.50
2023-04-03T19:11:38.515Z,51.60
2023-04-03T19:14:16.058Z,51.90
2023-04-03T19:16:44.951Z,52.10
2023-04-03T19:19:12.573Z,52.30
2023-04-03T19:21:42.695Z,52.40
2023-04-03T19:24:13.464Z,52.50
2023-04-03T19:26:42.227Z,52.50
2023-04-03T19:29:10.458Z,52.50
2023-04-03T19:31:38.685Z,52.60
2023-04-03T19:34:06.312Z,52.70
2023-04-03T19:36:34.638Z,52.80
2023-04-03T19:39:01.857Z,52.90
2023-04-03T19:41:31.644Z,53.00
2023-04-03T19:43:58.744Z,53.20
2023-04-03T19:46:28.198Z,53.30
2023-04-03T19:48:56.084Z,53.50
2023-04-03T19:51:23.727Z,54.00
2023-04-03T19:53:51.151Z,54.60
2023-04-03T19:56:18.395Z,54.90
2023-04-03T19:58:45.890Z,55.10
2023-04-03T20:01:13.020Z,55.30
2023-04-03T20:03:42.809Z,55.40
2023-04-03T20:06:09.826Z,55.50
2023-04-03T20:08:37.178Z,55.60
2023-04-03T20:11:04.223Z,55.90
2023-04-03T20:13:33.106Z,56.20
2023-04-03T20:16:05.479Z,56.40
2023-04-03T20:18:35.148Z,56.70
2023-04-03T20:21:04.094Z,56.90
2023-04-03T20:23:31.707Z,57.10
2023-04-03T20:26:09.258Z,57.40
2023-04-03T20:28:38.317Z,57.50
2023-04-03T20:31:07.952Z,57.90
2023-04-03T20:33:35.535Z,58.10
2023-04-03T20:36:02.694Z,58.20
2023-04-03T20:38:30.074Z,58.30
2023-04-03T20:40:57.137Z,58.20
2023-04-03T20:43:24.213Z,58.30
2023-04-03T20:45:51.349Z,58.40
2023-04-03T20:48:18.736Z,58.60
2023-04-03T20:50:46.781Z,58.60
2023-04-03T20:53:17.996Z,58.60
2023-04-03T20:56:00.211Z,58.60
2023-04-03T20:58:33.343Z,58.60
2023-04-03T21:01:01.033Z,58.70
2023-04-03T21:03:30.247Z,58.90
2023-04-03T21:06:00.457Z,59.00
2023-04-03T21:09:07.781Z,59.00
2023-04-03T21:12:12.128Z,59.10
2023-04-03T21:15:16.713Z,59.20
2023-04-03T21:18:08.004Z,59.40
2023-04-03T21:20:35.362Z,59.60
2023-04-03T21:23:02.342Z,59.60
2023-04-03T21:25:29.853Z,59.70
2023-04-03T21:27:57.004Z,59.70
2023-04-03T21:30:24.008Z,59.80
2023-04-03T21:32:51.491Z,59.80
2023-04-03T21:35:18.639Z,59.80
2023-04-03T21:37:45.627Z,59.90
2023-04-03T21:40:12.817Z,60.00
2023-04-03T21:42:39.728Z,60.10
2023-04-03T21:45:07.382Z,60.10
2023-04-03T21:47:35.707Z,60.20
2023-04-03T21:50:03.410Z,60.20
2023-04-03T21:52:30.349Z,60.20
2023-04-03T21:54:57.523Z,60.30
2023-04-03T21:57:24.708Z,60.20
2023-04-03T21:59:51.740Z,60.30
2023-04-03T22:02:18.825Z,60.30
2023-04-03T22:04:47.388Z,60.50
2023-04-03T22:07:14.600Z,60.50
2023-04-03T22:09:41.815Z,60.60
2023-04-03T22:12:08.918Z,60.60
2023-04-03T22:14:36.589Z,60.70
2023-04-03T22:17:04.197Z,60.70
2023-04-03T22:19:31.493Z,60.80
2023-04-03T22:21:58.435Z,60.80
2023-04-03T22:24:25.483Z,60.80
2023-04-03T22:26:52.653Z,60.80
2023-04-03T22:29:19.644Z,60.90
2023-04-03T22:31:46.602Z,60.90
2023-04-03T22:34:13.755Z,60.90
2023-04-03T22:36:43.085Z,60.90
2023-04-03T22:39:12.291Z,60.90
2023-04-03T22:41:39.256Z,61.00
2023-04-03T22:44:06.334Z,61.10
2023-04-03T22:46:33.332Z,61.20
2023-04-03T22:49:00.654Z,61.30
2023-04-03T22:51:27.572Z,61.30
2023-04-03T22:53:54.591Z,61.40
2023-04-03T22:56:23.958Z,61.50
2023-04-03T22:58:52.836Z,61.60
2023-04-03T23:01:20.308Z,61.80
2023-04-03T23:03:47.307Z,62.00
2023-04-03T23:06:14.232Z,62.10
2023-04-03T23:08:42.542Z,62.10
2023-04-03T23:11:10.158Z,62.20
2023-04-03T23:13:37.556Z,62.40
2023-04-03T23:16:05.273Z,62.40
2023-04-03T23:18:33.099Z,62.30
2023-04-03T23:21:01.332Z,62.20
2023-04-03T23:23:28.639Z,62.30
2023-04-03T23:26:02.628Z,62.40
2023-04-03T23:28:30.218Z,62.40
2023-04-03T23:30:59.508Z,62.40
2023-04-03T23:33:26.679Z,62.40
2023-04-03T23:35:53.657Z,62.50
2023-04-03T23:38:21.069Z,62.60
2023-04-03T23:40:48.287Z,62.60
2023-04-03T23:43:15.660Z,62.60
2023-04-03T23:45:44.857Z,62.70
2023-04-03T23:48:11.903Z,62.90
2023-04-03T23:50:39.100Z,63.10
2023-04-03T23:53:06.532Z,63.20
2023-04-03T23:55:33.468Z,63.40
2023-04-03T23:58:00.684Z,63.60
